createdAt,value
2023-04-12T00:00:10.373Z,98477.19
2023-04-12T00:02:38.961Z,98470.09
2023-04-12T00:05:09.697Z,98463.44
2023-04-12T00:07:38.374Z,98459.41
2023-04-12T00:10:07.972Z,98456.16
2023-04-12T00:12:35.645Z,98449.25
2023-04-12T00:15:03.308Z,98438.66
2023-04-12T00:17:32.463Z,98443.38
2023-04-12T00:20:00.214Z,98439.88
2023-04-12T00:22:28.477Z,98438.50
2023-04-12T00:24:56.046Z,98429.75
2023-04-12T00:27:23.801Z,98430.91
2023-04-12T00:29:51.377Z,98438.88
2023-04-12T00:32:19.003Z,98428.69
2023-04-12T00:34:48.122Z,98420.09
2023-04-12T00:37:15.789Z,98412.81
2023-04-12T00:39:43.361Z,98418.56
2023-04-12T00:42:10.935Z,98419.16
2023-04-12T00:44:38.539Z,98416.63
2023-04-12T00:47:06.900Z,98411.59
2023-04-12T00:49:35.105Z,98411.34
2023-04-12T00:52:06.248Z,98403.84
2023-04-12T00:54:34.715Z,98407.63
2023-04-12T00:57:02.790Z,98403.38
2023-04-12T00:59:30.935Z,98393.63
2023-04-12T01:01:58.779Z,98401.19
2023-04-12T01:04:27.231Z,98397.41
2023-04-12T01:07:06.518Z,98391.16
2023-04-12T01:09:39.425Z,98385.41
2023-04-12T01:12:10.145Z,98388.34
2023-04-12T01:14:44.741Z,98371.13
2023-04-12T01:17:17.216Z,98367.19
2023-04-12T01:19:57.723Z,98361.59
2023-04-12T01:22:39.406Z,98363.78
2023-04-12T01:25:24.148Z,98348.91
2023-04-12T01:27:55.761Z,98339.66
2023-04-12T01:30:24.376Z,98336.31
2023-04-12T01:32:52.715Z,98339.47
2023-04-12T01:35:21.925Z,98331.09
2023-04-12T01:37:49.633Z,98313.44
2023-04-12T01:40:19.250Z,98299.19
2023-04-12T01:42:46.941Z,98312.88
2023-04-12T01:45:16.051Z,98306.41
2023-04-12T01:47:43.702Z,98297.59
2023-04-12T01:50:17.748Z,98289.81
2023-04-12T01:52:50.879Z,98275.59
2023-04-12T01:55:20.641Z,98273.28
2023-04-12T01:57:49.198Z,98268.16
2023-04-12T02:00:19.417Z,98276.28
2023-04-12T02:02:47.251Z,98278.81
2023-04-12T02:05:15.193Z,98266.31
2023-04-12T02:07:42.992Z,98260.63
2023-04-12T02:10:14.545Z,98256.03
2023-04-12T02:12:42.150Z,98263.50
2023-04-12T02:15:10.274Z,98258.56
2023-04-12T02:17:40.861Z,98253.66
2023-04-12T02:20:11.826Z,98244.06
2023-04-12T02:22:39.465Z,98235.06
2023-04-12T02:25:07.790Z,98223.91
2023-04-12T02:27:35.391Z,98227.00
2023-04-12T02:30:05.065Z,98224.78
2023-04-12T02:32:32.839Z,98212.44
2023-04-12T02:35:02.776Z,98216.38
2023-04-12T02:37:30.443Z,98206.41
2023-04-12T02:39:58.953Z,98204.94
2023-04-12T02:42:26.538Z,98202.53
2023-04-12T02:44:54.081Z,98198.34
2023-04-12T02:47:21.654Z,98186.66
2023-04-12T02:49:49.278Z,98181.56
2023-04-12T02:52:18.622Z,98182.91
2023-04-12T02:54:46.239Z,98170.94
2023-04-12T02:57:13.879Z,98170.84
2023-04-12T02:59:41.487Z,98168.09
2023-04-12T03:02:09.241Z,98160.44
2023-04-12T03:04:39.853Z,98158.81
2023-04-12T03:07:07.772Z,98158.34
2023-04-12T03:09:38.549Z,98153.94
2023-04-12T03:12:06.824Z,98145.00
2023-04-12T03:14:34.497Z,98140.06
2023-04-12T03:17:02.104Z,98136.06
2023-04-12T03:19:32.866Z,98137.44
2023-04-12T03:22:00.508Z,98130.03
2023-04-12T03:24:28.689Z,98131.88
2023-04-12T03:26:58.137Z,98119.59
2023-04-12T03:29:25.769Z,98106.56
2023-04-12T03:31:53.363Z,98101.31
2023-04-12T03:34:20.938Z,98097.75
2023-04-12T03:36:48.563Z,98093.50
2023-04-12T03:39:16.324Z,98092.88
2023-04-12T03:41:44.033Z,98083.78
2023-04-12T03:44:13.042Z,98070.75
2023-04-12T03:46:40.790Z,98072.22
2023-04-12T03:49:08.481Z,98054.41
2023-04-12T03:51:36.304Z,98048.00
2023-04-12T03:54:04.407Z,98040.91
2023-04-12T03:56:32.216Z,98037.97
2023-04-12T03:58:59.861Z,98039.38
2023-04-12T04:01:29.055Z,98023.25
2023-04-12T04:03:57.362Z,98009.13
2023-04-12T04:06:25.638Z,98015.06
2023-04-12T04:08:53.304Z,98016.22
2023-04-12T04:11:20.885Z,98000.03
2023-04-12T04:13:48.483Z,97995.56
2023-04-12T04:16:16.224Z,97987.78
2023-04-12T04:18:45.607Z,97992.00
2023-04-12T04:21:14.239Z,97973.72
2023-04-12T04:23:44.872Z,97977.81
2023-04-12T04:26:13.889Z,97974.97
2023-04-12T04:28:45.101Z,97968.72
2023-04-12T04:31:13.379Z,97963.63
2023-04-12T04:33:41.817Z,97959.69
2023-04-12T04:36:12.626Z,97961.56
2023-04-12T04:38:40.544Z,97956.69
2023-04-12T04:41:10.325Z,97952.84
2023-04-12T04:43:39.914Z,97949.22
2023-04-12T04:46:08.066Z,97946.91
2023-04-12T04:48:36.412Z,97947.50
2023-04-12T04:51:04.042Z,97942.09
2023-04-12T04:53:33.151Z,97937.94
2023-04-12T04:56:01.336Z,97928.38
2023-04-12T04:58:29.121Z,97928.22
2023-04-12T05:00:58.244Z,97915.34
2023-04-12T05:03:30.293Z,97911.41
2023-04-12T05:05:58.496Z,97906.41
2023-04-12T05:08:26.510Z,97902.53
2023-04-12T05:10:56.454Z,97900.38
2023-04-12T05:13:24.214Z,97896.03
2023-04-12T05:15:51.903Z,97894.78
2023-04-12T05:18:19.502Z,97884.31
2023-04-12T05:20:48.336Z,97882.16
2023-04-12T05:23:17.382Z,97877.59
2023-04-12T05:25:48.298Z,97875.31
2023-04-12T05:28:17.985Z,97870.66
2023-04-12T05:30:46.217Z,97867.44
2023-04-12T05:33:14.439Z,97862.63
2023-04-12T05:35:42.232Z,97849.06
2023-04-12T05:38:10.093Z,97846.44
2023-04-12T05:40:38.640Z,97842.56
2023-04-12T05:43:06.490Z,97833.00
2023-04-12T05:45:35.464Z,97829.78
2023-04-12T05:48:03.253Z,97822.59
2023-04-12T05:50:30.961Z,97816.91
2023-04-12T05:52:58.898Z,97813.44
2023-04-12T05:55:26.758Z,97809.38
2023-04-12T05:57:54.433Z,97802.38
2023-04-12T06:00:23.429Z,97800.66
2023-04-12T06:02:52.780Z,97790.88
2023-04-12T06:05:20.934Z,97800.06
2023-04-12T06:07:48.919Z,97800.50
2023-04-12T06:10:17.945Z,97795.59
2023-04-12T06:12:46.210Z,97778.16
2023-04-12T06:15:13.910Z,97793.00
2023-04-12T06:17:41.598Z,97792.06
2023-04-12T06:20:12.405Z,97782.66
2023-04-12T06:22:40.062Z,97785.13
2023-04-12T06:25:09.223Z,97769.13
2023-04-12T06:27:37.121Z,97764.81
2023-04-12T06:30:05.332Z,97763.63
2023-04-12T06:32:33.063Z,97758.22
2023-04-12T06:35:01.119Z,97748.31
2023-04-12T06:37:30.276Z,97755.25
2023-04-12T06:39:57.882Z,97749.25
2023-04-12T06:42:25.563Z,97753.72
2023-04-12T06:44:53.303Z,97743.59
2023-04-12T06:47:22.843Z,97744.53
2023-04-12T06:49:53.241Z,97752.47
2023-04-12T06:52:25.141Z,97729.28
2023-04-12T06:54:54.298Z,97723.44
2023-04-12T06:57:21.972Z,97719.97
2023-04-12T06:59:49.605Z,97715.91
2023-04-12T07:02:17.467Z,97712.28
2023-04-12T07:04:45.371Z,97697.38
2023-04-12T07:07:13.433Z,97698.75
2023-04-12T07:09:41.262Z,97692.66
2023-04-12T07:12:10.339Z,97688.75
2023-04-12T07:14:38.107Z,97677.31
2023-04-12T07:17:05.782Z,97673.41
2023-04-12T07:19:33.634Z,97674.09
2023-04-12T07:22:01.396Z,97664.69
2023-04-12T07:24:29.087Z,97658.03
2023-04-12T07:26:56.697Z,97659.88
2023-04-12T07:29:26.078Z,97653.28
2023-04-12T07:31:53.699Z,97642.13
2023-04-12T07:34:21.605Z,97649.19
2023-04-12T07:36:49.470Z,97644.03
2023-04-12T07:39:17.262Z,97631.00
2023-04-12T07:41:46.435Z,97633.72
2023-04-12T07:44:16.011Z,97640.28
2023-04-12T07:46:46.207Z,97625.94
2023-04-12T07:49:14.046Z,97639.94
2023-04-12T07:51:42.398Z,97637.97
2023-04-12T07:54:10.311Z,97626.91
2023-04-12T07:56:38.044Z,97630.47
2023-04-12T07:59:06.011Z,97626.19
2023-04-12T08:01:33.874Z,97628.63
2023-04-12T08:04:03.306Z,97618.66
2023-04-12T08:06:33.699Z,97621.50
2023-04-12T08:09:01.997Z,97622.25
2023-04-12T08:11:29.700Z,97608.59
2023-04-12T08:13:57.754Z,97610.38
2023-04-12T08:16:25.904Z,97604.72
2023-04-12T08:18:53.753Z,97600.97
2023-04-12T08:21:22.830Z,97599.59
2023-04-12T08:23:50.853Z,97596.41
2023-04-12T08:26:18.477Z,97591.16
2023-04-12T08:28:46.060Z,97576.72
2023-04-12T08:31:13.792Z,97590.31
2023-04-12T08:33:41.669Z,97571.00
2023-04-12T08:36:10.305Z,97571.66
2023-04-12T08:38:45.646Z,97573.94
2023-04-12T08:41:15.155Z,97571.38
2023-04-12T08:43:46.156Z,97569.06
2023-04-12T08:46:16.386Z,97560.31
2023-04-12T08:48:46.233Z,97562.84
2023-04-12T08:51:15.592Z,97563.50
2023-04-12T08:53:46.668Z,97552.34
2023-04-12T08:56:15.770Z,97553.84
2023-04-12T08:58:46.617Z,97545.09
2023-04-12T09:01:15.697Z,97551.09
2023-04-12T09:03:44.343Z,97544.53
2023-04-12T09:06:12.910Z,97542.66
2023-04-12T09:08:54.267Z,97535.00
2023-04-12T09:11:27.111Z,97538.03
2023-04-12T09:13:56.124Z,97524.91
2023-04-12T09:16:37.783Z,97526.59
2023-04-12T09:19:06.090Z,97518.00
2023-04-12T09:21:34.609Z,97519.59
2023-04-12T09:24:12.298Z,97518.16
2023-04-12T09:26:41.745Z,97517.72
2023-04-12T09:29:23.250Z,97511.50
2023-04-12T09:31:57.091Z,97501.28
2023-04-12T09:34:26.623Z,97500.44
2023-04-12T09:36:55.617Z,97497.56
2023-04-12T09:39:33.909Z,97495.03
2023-04-12T09:42:18.067Z,97496.72
2023-04-12T09:44:53.421Z,97493.69
2023-04-12T09:47:21.458Z,97488.44
2023-04-12T09:49:49.352Z,97485.59
2023-04-12T09:52:17.040Z,97473.28
2023-04-12T09:54:48.429Z,97467.13
2023-04-12T09:57:18.707Z,97474.16
2023-04-12T09:59:50.030Z,97466.28
2023-04-12T10:02:19.042Z,97465.44
2023-04-12T10:04:48.806Z,97449.44
2023-04-12T10:07:16.772Z,97465.44
2023-04-12T10:09:46.052Z,97451.34
2023-04-12T10:12:13.668Z,97450.84
2023-04-12T10:14:43.234Z,97459.88
2023-04-12T10:17:12.222Z,97455.25
2023-04-12T10:19:40.760Z,97444.94
2023-04-12T10:22:08.453Z,97444.63
2023-04-12T10:24:36.339Z,97436.59
2023-04-12T10:27:05.531Z,97420.81
2023-04-12T10:29:36.220Z,97434.56
2023-04-12T10:32:19.392Z,97429.94
2023-04-12T10:34:51.740Z,97430.03
2023-04-12T10:37:19.386Z,97423.63
2023-04-12T10:39:53.355Z,97419.59
2023-04-12T10:42:24.728Z,97420.34
2023-04-12T10:44:54.664Z,97419.38
2023-04-12T10:48:01.559Z,97415.00
2023-04-12T10:50:30.656Z,97414.50
2023-04-12T10:53:26.870Z,97406.72
2023-04-12T10:55:54.614Z,97411.44
2023-04-12T10:59:03.337Z,97411.94
2023-04-12T11:01:31.635Z,97403.09
2023-04-12T11:04:14.247Z,97390.06
2023-04-12T11:06:59.140Z,97409.63
2023-04-12T11:09:28.445Z,97407.06
2023-04-12T11:12:00.238Z,97407.00
2023-04-12T11:14:35.779Z,97389.78
2023-04-12T11:17:25.934Z,97401.06
2023-04-12T11:19:58.461Z,97396.00
2023-04-12T11:22:28.689Z,97386.34
2023-04-12T11:24:57.861Z,97377.50
2023-04-12T11:27:26.682Z,97375.03
2023-04-12T11:29:57.364Z,97379.25
2023-04-12T11:32:27.692Z,97375.53
2023-04-12T11:34:56.948Z,97369.44
2023-04-12T11:37:26.930Z,97369.94
2023-04-12T11:39:57.337Z,97367.31
2023-04-12T11:42:26.314Z,97375.13
2023-04-12T11:44:59.763Z,97370.47
2023-04-12T11:47:29.764Z,97361.94
2023-04-12T11:49:59.311Z,97373.94
2023-04-12T11:52:29.743Z,97372.25
2023-04-12T11:54:58.843Z,97374.78
2023-04-12T11:57:28.532Z,97376.19
2023-04-12T11:59:58.562Z,97367.66
2023-04-12T12:02:29.846Z,97358.50
2023-04-12T12:04:58.487Z,97353.56
2023-04-12T12:07:26.747Z,97343.72
2023-04-12T12:09:54.994Z,97345.84
2023-04-12T12:12:25.100Z,97350.44
2023-04-12T12:14:52.784Z,97351.63
2023-04-12T12:17:21.744Z,97361.97
2023-04-12T12:19:49.397Z,97360.31
2023-04-12T12:22:18.422Z,97368.88
2023-04-12T12:24:48.041Z,97374.19
2023-04-12T12:27:19.511Z,97364.19
2023-04-12T12:29:50.782Z,97365.66
2023-04-12T12:32:19.725Z,97369.59
2023-04-12T12:34:56.442Z,97377.19
2023-04-12T12:37:28.506Z,97376.09
2023-04-12T12:40:17.820Z,97372.97
2023-04-12T12:42:46.915Z,97365.66
2023-04-12T12:45:15.314Z,97361.47
2023-04-12T12:47:48.249Z,97350.03
2023-04-12T12:50:18.361Z,97352.94
2023-04-12T12:52:47.116Z,97345.00
2023-04-12T12:55:15.173Z,97369.63
2023-04-12T12:57:44.433Z,97365.16
2023-04-12T13:00:16.649Z,97365.41
2023-04-12T13:02:44.489Z,97367.22
2023-04-12T13:05:13.204Z,97366.25
2023-04-12T13:07:42.373Z,97350.19
2023-04-12T13:10:10.329Z,97358.56
2023-04-12T13:12:37.889Z,97365.88
2023-04-12T13:15:20.979Z,97359.63
2023-04-12T13:17:50.608Z,97354.47
2023-04-12T13:20:18.276Z,97357.59
2023-04-12T13:22:47.286Z,97351.47
2023-04-12T13:25:14.920Z,97344.03
2023-04-12T13:27:42.565Z,97340.66
2023-04-12T13:30:11.003Z,97345.34
2023-04-12T13:32:38.700Z,97349.09
2023-04-12T13:35:07.067Z,97341.03
2023-04-12T13:37:35.669Z,97345.72
2023-04-12T13:40:05.138Z,97342.00
2023-04-12T13:42:33.119Z,97329.84
2023-04-12T13:45:01.434Z,97330.78
2023-04-12T13:47:29.061Z,97330.00
2023-04-12T13:49:56.582Z,97331.25
2023-04-12T13:52:24.305Z,97335.66
2023-04-12T13:54:51.911Z,97333.19
2023-04-12T13:57:21.047Z,97328.59
2023-04-12T13:59:48.659Z,97329.38
2023-04-12T14:02:16.329Z,97335.41
2023-04-12T14:04:51.743Z,97328.59
2023-04-12T14:07:19.456Z,97339.19
2023-04-12T14:09:48.446Z,97353.03
2023-04-12T14:12:16.140Z,97356.75
2023-04-12T14:14:45.141Z,97370.81
2023-04-12T14:17:12.851Z,97344.38
2023-04-12T14:19:40.815Z,97363.72
2023-04-12T14:22:08.455Z,97352.19
2023-04-12T14:24:36.751Z,97373.09
2023-04-12T14:27:04.893Z,97372.03
2023-04-12T14:29:32.814Z,97379.81
2023-04-12T14:32:01.766Z,97365.41
2023-04-12T14:34:30.985Z,97352.31
2023-04-12T14:37:00.222Z,97370.91
2023-04-12T14:39:27.938Z,97365.13
2023-04-12T14:41:56.923Z,97362.19
2023-04-12T14:44:26.235Z,97356.69
2023-04-12T14:46:54.082Z,97372.72
2023-04-12T14:49:23.142Z,97381.72
2023-04-12T14:51:50.773Z,97399.00
2023-04-12T14:54:18.390Z,97403.03
2023-04-12T14:56:52.394Z,97391.88
2023-04-12T14:59:21.625Z,97388.22
2023-04-12T15:01:49.363Z,97373.94
2023-04-12T15:04:17.248Z,97372.13
2023-04-12T15:06:46.332Z,97367.06
2023-04-12T15:09:15.656Z,97372.06
2023-04-12T15:11:47.217Z,97359.84
2023-04-12T15:14:18.056Z,97365.41
2023-04-12T15:16:46.602Z,97366.84
2023-04-12T15:19:19.876Z,97364.47
2023-04-12T15:21:51.897Z,97365.13
2023-04-12T15:24:19.743Z,97365.13
2023-04-12T15:26:48.531Z,97359.69
2023-04-12T15:29:16.604Z,97368.66
2023-04-12T15:31:44.491Z,97375.06
2023-04-12T15:34:13.289Z,97385.84
2023-04-12T15:36:43.013Z,97393.28
2023-04-12T15:39:12.641Z,97384.66
2023-04-12T15:41:41.696Z,97388.72
2023-04-12T15:44:11.856Z,97392.09
2023-04-12T15:46:40.688Z,97393.19
2023-04-12T15:49:09.064Z,97391.78
2023-04-12T15:51:37.095Z,97406.78
2023-04-12T15:54:06.541Z,97405.91
2023-04-12T15:56:37.849Z,97409.41
2023-04-12T15:59:05.853Z,97412.53
2023-04-12T16:01:35.539Z,97416.97
2023-04-12T16:04:03.483Z,97410.97
2023-04-12T16:06:34.636Z,97422.59
2023-04-12T16:09:04.400Z,97411.56
2023-04-12T16:11:33.874Z,97418.06
2023-04-12T16:14:02.848Z,97418.88
2023-04-12T16:16:30.864Z,97413.91
2023-04-12T16:19:00.017Z,97423.78
2023-04-12T16:21:28.501Z,97415.25
2023-04-12T16:23:56.039Z,97413.78
2023-04-12T16:26:23.731Z,97408.84
2023-04-12T16:28:53.255Z,97407.00
2023-04-12T16:31:23.075Z,97393.63
2023-04-12T16:33:51.142Z,97398.00
2023-04-12T16:36:18.977Z,97403.72
2023-04-12T16:38:46.710Z,97410.59
2023-04-12T16:41:14.430Z,97408.22
2023-04-12T16:43:44.773Z,97402.41
2023-04-12T16:46:13.353Z,97404.16
2023-04-12T16:48:42.712Z,97401.31
2023-04-12T16:51:10.468Z,97407.91
2023-04-12T16:53:38.102Z,97411.72
2023-04-12T16:56:06.244Z,97412.47
2023-04-12T16:58:33.978Z,97402.16
2023-04-12T17:01:01.883Z,97417.78
2023-04-12T17:03:30.160Z,97412.22
2023-04-12T17:05:59.310Z,97413.78
2023-04-12T17:08:26.884Z,97425.22
2023-04-12T17:10:55.328Z,97417.91
2023-04-12T17:13:23.137Z,97438.53
2023-04-12T17:15:50.781Z,97429.38
2023-04-12T17:18:18.395Z,97431.06
2023-04-12T17:20:46.230Z,97427.13
2023-04-12T17:23:16.578Z,97433.69
2023-04-12T17:25:44.713Z,97429.78
2023-04-12T17:28:13.002Z,97427.31
2023-04-12T17:30:41.104Z,97432.03
2023-04-12T17:33:09.432Z,97427.97
2023-04-12T17:35:37.429Z,97429.28
2023-04-12T17:38:05.081Z,97444.78
2023-04-12T17:40:34.110Z,97446.84
2023-04-12T17:43:01.847Z,97453.84
2023-04-12T17:45:29.685Z,97445.09
2023-04-12T17:47:57.299Z,97448.69
2023-04-12T17:50:25.143Z,97459.09
2023-04-12T17:52:52.797Z,97456.44
2023-04-12T17:55:23.516Z,97460.25
2023-04-12T17:57:53.166Z,97474.09
2023-04-12T18:00:23.297Z,97481.84
2023-04-12T18:02:51.379Z,97487.91
2023-04-12T18:05:19.475Z,97491.16
2023-04-12T18:07:47.098Z,97500.94
2023-04-12T18:10:18.895Z,97504.16
2023-04-12T18:12:48.129Z,97505.56
2023-04-12T18:15:18.157Z,97516.13
2023-04-12T18:17:45.926Z,97524.88
2023-04-12T18:20:13.943Z,97537.31
2023-04-12T18:22:42.206Z,97539.31
2023-04-12T18:25:11.598Z,97536.91
2023-04-12T18:27:39.256Z,97562.28
2023-04-12T18:30:08.360Z,97571.44
2023-04-12T18:32:37.391Z,97579.78
2023-04-12T18:35:05.693Z,97587.78
2023-04-12T18:37:33.351Z,97626.81
2023-04-12T18:40:01.020Z,97652.53
2023-04-12T18:42:28.638Z,97653.72
2023-04-12T18:44:58.119Z,97660.84
2023-04-12T18:47:26.972Z,97671.56
2023-04-12T18:49:56.395Z,97674.13
2023-04-12T18:52:23.995Z,97673.88
2023-04-12T18:54:51.699Z,97678.94
2023-04-12T18:57:19.330Z,97664.19
2023-04-12T18:59:48.878Z,97671.91
2023-04-12T19:02:18.113Z,97678.38
2023-04-12T19:04:46.128Z,97675.25
2023-04-12T19:07:15.433Z,97676.38
2023-04-12T19:09:43.099Z,97678.72
2023-04-12T19:12:10.647Z,97671.91
2023-04-12T19:14:38.238Z,97659.25
2023-04-12T19:17:05.800Z,97661.84
2023-04-12T19:19:33.427Z,97665.69
2023-04-12T19:22:01.077Z,97660.44
2023-04-12T19:24:30.135Z,97660.09
2023-04-12T19:26:57.743Z,97661.31
2023-04-12T19:29:25.988Z,97654.72
2023-04-12T19:31:53.816Z,97648.13
2023-04-12T19:34:21.482Z,97653.94
2023-04-12T19:36:49.550Z,97659.47
2023-04-12T19:39:18.561Z,97656.78
2023-04-12T19:41:49.023Z,97660.84
2023-04-12T19:44:16.579Z,97664.91
2023-04-12T19:46:44.246Z,97662.22
2023-04-12T19:49:11.989Z,97661.03
2023-04-12T19:51:39.801Z,97665.41
2023-04-12T19:54:09.833Z,97672.69
2023-04-12T19:56:37.667Z,97666.50
2023-04-12T19:59:06.686Z,97678.25
2023-04-12T20:01:43.036Z,97679.94
2023-04-12T20:04:10.688Z,97701.66
2023-04-12T20:06:38.691Z,97693.13
2023-04-12T20:09:06.332Z,97690.25
2023-04-12T20:11:33.943Z,97688.88
2023-04-12T20:14:01.522Z,97685.56
2023-04-12T20:16:31.250Z,97687.44
2023-04-12T20:18:59.122Z,97681.03
2023-04-12T20:21:27.721Z,97676.09
2023-04-12T20:23:55.337Z,97677.72
2023-04-12T20:26:23.012Z,97676.31
2023-04-12T20:28:50.829Z,97673.84
2023-04-12T20:31:19.489Z,97684.56
2023-04-12T20:33:49.240Z,97682.44
2023-04-12T20:36:18.018Z,97683.94
2023-04-12T20:38:45.648Z,97691.03
2023-04-12T20:41:13.289Z,97697.53
2023-04-12T20:43:46.308Z,97701.91
2023-04-12T20:46:16.802Z,97700.91
2023-04-12T20:48:46.727Z,97705.31
2023-04-12T20:51:16.316Z,97716.22
2023-04-12T20:53:45.575Z,97721.47
2023-04-12T20:56:13.208Z,97732.09
2023-04-12T20:58:41.303Z,97736.94
2023-04-12T21:01:14.410Z,97739.16
2023-04-12T21:03:43.409Z,97741.25
2023-04-12T21:06:11.628Z,97743.72
2023-04-12T21:08:43.387Z,97741.94
2023-04-12T21:11:11.249Z,97734.56
2023-04-12T21:13:38.846Z,97741.31
2023-04-12T21:16:07.933Z,97738.25
2023-04-12T21:18:36.256Z,97731.25
2023-04-12T21:21:03.915Z,97736.78
2023-04-12T21:23:31.529Z,97744.63
2023-04-12T21:26:02.412Z,97751.63
2023-04-12T21:28:30.977Z,97742.16
2023-04-12T21:30:59.107Z,97750.94
2023-04-12T21:33:26.780Z,97753.56
2023-04-12T21:35:55.064Z,97754.88
2023-04-12T21:38:23.414Z,97758.19
2023-04-12T21:40:51.258Z,97736.31
2023-04-12T21:43:20.253Z,97756.94
2023-04-12T21:45:47.910Z,97751.47
2023-04-12T21:48:15.605Z,97752.63
2023-04-12T21:50:43.212Z,97745.78
2023-04-12T21:53:10.895Z,97752.56
2023-04-12T21:55:39.019Z,97758.09
2023-04-12T21:58:07.141Z,97764.88
2023-04-12T22:00:37.161Z,97754.34
2023-04-12T22:03:05.301Z,97764.59
2023-04-12T22:05:33.280Z,97761.88
2023-04-12T22:08:00.940Z,97767.75
2023-04-12T22:10:29.221Z,97763.66
2023-04-12T22:12:56.899Z,97752.88
2023-04-12T22:15:26.096Z,97761.56
2023-04-12T22:17:55.237Z,97773.81
2023-04-12T22:20:22.915Z,97772.81
2023-04-12T22:22:50.531Z,97767.44
2023-04-12T22:25:18.434Z,97766.75
2023-04-12T22:27:46.420Z,97774.13
2023-04-12T22:30:14.732Z,97776.13
2023-04-12T22:32:42.511Z,97784.75
2023-04-12T22:35:12.166Z,97780.75
2023-04-12T22:37:43.885Z,97782.44
2023-04-12T22:40:13.437Z,97777.59
2023-04-12T22:42:46.096Z,97786.28
2023-04-12T22:45:14.710Z,97775.28
2023-04-12T22:47:42.972Z,97780.53
2023-04-12T22:50:16.415Z,97775.91
2023-04-12T22:52:44.932Z,97754.50
2023-04-12T22:55:13.870Z,97761.88
2023-04-12T22:57:42.221Z,97771.44
2023-04-12T23:00:15.774Z,97767.44
2023-04-12T23:02:46.550Z,97765.28
2023-04-12T23:05:17.627Z,97767.19
2023-04-12T23:07:46.025Z,97761.19
2023-04-12T23:10:14.366Z,97757.44
2023-04-12T23:12:42.347Z,97759.97
2023-04-12T23:15:12.592Z,97756.72
2023-04-12T23:17:40.597Z,97747.56
2023-04-12T23:20:13.119Z,97746.72
2023-04-12T23:22:57.392Z,97744.63
2023-04-12T23:25:29.189Z,97745.72
2023-04-12T23:27:57.484Z,97740.09
2023-04-12T23:30:29.807Z,97741.47
2023-04-12T23:32:58.422Z,97742.88
2023-04-12T23:35:26.184Z,97740.56
2023-04-12T23:37:56.093Z,97741.47
2023-04-12T23:40:24.333Z,97736.09
2023-04-12T23:42:52.135Z,97737.72
2023-04-12T23:45:19.981Z,97736.38
2023-04-12T23:47:47.645Z,97729.78
2023-04-12T23:50:15.421Z,97727.31
2023-04-12T23:52:43.066Z,97730.22
2023-04-12T23:55:12.054Z,97737.00
2023-04-12T23:57:39.653Z,97728.16
